Time;durP1;ratioP1;P1;durP2;ratioP2;P2;SDS_P1;SDS_P2;PMS_P1;PMS_P2;Temp;Humidity;BMP_temperature;BMP_pressure;BME280_temperature;BME280_humidity;BME280_pressure;Samples;Min_cycle;Max_cycle;Signal;HPM_P1;HPM_P2
2024/01/11 00:00:39;;;;;;;;;;;;;;;-144.99;100.00;52603.00;5033600;28;19979;-70
2024/01/11 00:03:07;;;;;;;;;;;;;;;-144.99;100.00;52660.09;5031867;28;19933;-69
2024/01/11 00:05:34;;;;;;;;;;;;;;;-144.99;100.00;52623.38;5044525;28;19925;-69
2024/01/11 00:08:00;;;;;;;;;;;;;;;-144.99;100.00;52641.72;5039943;28;19925;-71
2024/01/11 00:10:27;;;;;;;;;;;;;;;-144.99;100.00;52619.31;5039064;28;19947;-70
2024/01/11 00:12:53;;;;;;;;;;;;;;;-144.99;100.00;52598.94;5030211;28;19925;-68
2024/01/11 00:15:20;;;;;;;;;;;;;;;-144.99;100.00;52600.97;5033373;28;20014;-69
2024/01/11 00:17:47;;;;;;;;;;;;;;;-144.99;100.00;52625.44;5031869;28;19925;-69
2024/01/11 00:20:15;;;;;;;;;;;;;;;-144.99;100.00;52598.94;5034581;28;19925;-69
2024/01/11 00:22:41;;;;;;;;;;;;;;;-144.99;100.00;52647.84;5031834;28;19947;-68
2024/01/11 00:25:08;;;;;;;;;;;;;;;-144.99;100.00;52619.31;5028436;28;19937;-68
2024/01/11 00:27:35;;;;;;;;;;;;;;;-144.99;100.00;52631.53;5032042;28;19929;-69
2024/01/11 00:30:01;;;;;;;;;;;;;;;-144.99;100.00;52635.63;5027628;28;19932;-70
2024/01/11 00:32:28;;;;;;;;;;;;;;;-144.99;100.00;52627.47;5033246;28;20420;-69
2024/01/11 00:34:54;;;;;;;;;;;;;;;-144.99;100.00;52639.69;5031830;28;19996;-67
2024/01/11 00:37:22;;;;;;;;;;;;;;;-144.99;100.00;52615.25;5031380;28;20080;-67
2024/01/11 00:39:49;;;;;;;;;;;;;;;-144.99;100.00;52615.25;5028525;28;19929;-69
2024/01/11 00:42:16;;;;;;;;;;;;;;;-144.99;100.00;52619.31;5031707;28;19929;-68
2024/01/11 00:44:44;;;;;;;;;;;;;;;-144.99;100.00;52607.09;5043501;28;19969;-68
2024/01/11 00:47:11;;;;;;;;;;;;;;;-144.99;100.00;52615.25;5048639;28;20321;-68
2024/01/11 00:49:37;;;;;;;;;;;;;;;-144.99;100.00;52615.25;5027519;28;20024;-67
2024/01/11 00:52:04;;;;;;;;;;;;;;;-144.99;100.00;52611.16;5049382;28;19925;-67
2024/01/11 00:54:32;;;;;;;;;;;;;;;-144.99;100.00;52649.88;5051329;28;19936;-66
2024/01/11 00:56:59;;;;;;;;;;;;;;;-144.99;100.00;52627.47;5050023;28;19963;-69
2024/01/11 00:59:25;;;;;;;;;;;;;;;-144.99;100.00;52619.31;5048998;28;19952;-73
2024/01/11 01:01:52;;;;;;;;;;;;;;;-144.99;100.00;52615.25;5050279;28;19948;-71
2024/01/11 01:04:18;;;;;;;;;;;;;;;-144.99;100.00;52647.84;5049783;28;19940;-71
2024/01/11 01:06:45;;;;;;;;;;;;;;;-144.99;100.00;52643.78;5046165;28;19995;-69
2024/01/11 01:09:13;;;;;;;;;;;;;;;-144.99;100.00;52590.78;5024033;28;19953;-69
2024/01/11 01:11:41;;;;;;;;;;;;;;;-144.99;100.00;52582.63;5018575;28;19994;-69
2024/01/11 01:14:07;;;;;;;;;;;;;;;-144.99;100.00;52627.47;5030773;28;20375;-70
2024/01/11 01:16:34;;;;;;;;;;;;;;;-144.99;100.00;52598.94;5031029;28;19932;-66
2024/01/11 01:19:00;;;;;;;;;;;;;;;-144.99;100.00;52635.63;5029778;28;20019;-66
2024/01/11 01:21:27;;;;;;;;;;;;;;;-144.99;100.00;52611.16;5027075;28;19968;-66
2024/01/11 01:23:54;;;;;;;;;;;;;;;-144.99;100.00;52582.63;5032051;28;19925;-66
2024/01/11 01:26:21;;;;;;;;;;;;;;;-144.99;100.00;52592.81;5033335;28;19985;-66
2024/01/11 01:28:48;;;;;;;;;;;;;;;-144.99;100.00;52607.09;5024334;28;19976;-67
2024/01/11 01:31:15;;;;;;;;;;;;;;;-144.99;100.00;52619.31;5027643;28;19996;-67
2024/01/11 01:33:41;;;;;;;;;;;;;;;-144.99;100.00;52607.09;5031140;28;19955;-66
2024/01/11 01:36:09;;;;;;;;;;;;;;;-144.99;100.00;52627.47;5035668;28;19925;-67
2024/01/11 01:38:35;;;;;;;;;;;;;;;-144.99;100.00;52603.00;5038356;28;19933;-67
2024/01/11 01:41:02;;;;;;;;;;;;;;;-144.99;100.00;52629.50;5031969;28;20039;-66
2024/01/11 01:43:29;;;;;;;;;;;;;;;-144.99;100.00;52611.16;5036226;28;19997;-70
2024/01/11 01:45:57;;;;;;;;;;;;;;;-144.99;100.00;52643.78;5032585;28;19953;-69
2024/01/11 01:48:23;;;;;;;;;;;;;;;-144.99;100.00;52594.84;5031481;28;19933;-70
2024/01/11 01:50:51;;;;;;;;;;;;;;;-144.99;100.00;52647.84;5032726;28;20013;-69
2024/01/11 01:53:18;;;;;;;;;;;;;;;-144.99;100.00;52603.00;5030634;28;19987;-69
2024/01/11 01:55:44;;;;;;;;;;;;;;;-144.99;100.00;52635.63;5046970;28;19972;-69
2024/01/11 01:58:11;;;;;;;;;;;;;;;-144.99;100.00;52619.31;5037242;28;19932;-70
2024/01/11 02:00:37;;;;;;;;;;;;;;;-144.99;100.00;52615.25;5031277;28;19955;-69
2024/01/11 02:03:05;;;;;;;;;;;;;;;-144.99;100.00;52629.50;5035220;28;19957;-70
2024/01/11 02:05:32;;;;;;;;;;;;;;;-144.99;100.00;52635.63;5038608;28;19932;-71
2024/01/11 02:08:00;;;;;;;;;;;;;;;-144.99;100.00;52631.53;5050858;28;19913;-71
2024/01/11 02:10:26;;;;;;;;;;;;;;;-144.99;100.00;52619.31;5054915;28;19924;-70
2024/01/11 02:12:53;;;;;;;;;;;;;;;-144.99;100.00;52619.31;5051155;28;20039;-70
2024/01/11 02:15:19;;;;;;;;;;;;;;;-144.99;100.00;52590.78;5047935;28;19929;-72
2024/01/11 02:17:46;;;;;;;;;;;;;;;-144.99;100.00;52596.88;5051062;28;19929;-67
2024/01/11 02:20:14;;;;;;;;;;;;;;;-144.99;100.00;52623.38;5046858;28;19929;-69
2024/01/11 02:22:42;;;;;;;;;;;;;;;-144.99;100.00;52594.84;5040505;28;20343;-66
2024/01/11 02:25:10;;;;;;;;;;;;;;;-144.99;100.00;52603.00;5031022;28;20035;-69
2024/01/11 02:27:46;;;;;;;;;;;;;;;-144.99;100.00;52649.88;5032850;28;19979;-67
2024/01/11 02:30:13;;;;;;;;;;;;;;;-144.99;100.00;52611.16;5028445;28;19929;-69
2024/01/11 02:32:40;;;;;;;;;;;;;;;-144.99;100.00;52643.78;5030744;28;19948;-69
2024/01/11 02:35:07;;;;;;;;;;;;;;;-144.99;100.00;52607.09;5037049;28;19933;-69
2024/01/11 02:37:34;;;;;;;;;;;;;;;-144.99;100.00;52651.94;5048470;28;20206;-70
2024/01/11 02:40:00;;;;;;;;;;;;;;;-144.99;100.00;52596.88;5047645;28;19925;-71
2024/01/11 02:42:28;;;;;;;;;;;;;;;-144.99;100.00;52664.16;5045516;28;20175;-70
2024/01/11 02:44:54;;;;;;;;;;;;;;;-144.99;100.00;52598.94;5042400;28;19925;-70
2024/01/11 02:47:21;;;;;;;;;;;;;;;-144.99;100.00;52611.16;5043214;28;19956;-70
2024/01/11 02:49:47;;;;;;;;;;;;;;;-144.99;100.00;52611.16;5049304;28;19948;-71
2024/01/11 02:52:14;;;;;;;;;;;;;;;-144.99;100.00;52653.97;5050961;28;20827;-70
2024/01/11 02:54:40;;;;;;;;;;;;;;;-144.99;100.00;52629.50;5049066;28;19925;-73
2024/01/11 02:57:07;;;;;;;;;;;;;;;-144.99;100.00;52643.78;5052082;28;19956;-70
2024/01/11 02:59:35;;;;;;;;;;;;;;;-144.99;100.00;52643.78;5053994;28;19997;-70
2024/01/11 03:02:01;;;;;;;;;;;;;;;-144.99;100.00;52615.25;5041643;28;19925;-68
2024/01/11 03:04:28;;;;;;;;;;;;;;;-144.99;100.00;52639.69;5044001;28;20020;-68
2024/01/11 03:06:54;;;;;;;;;;;;;;;-144.99;100.00;52598.94;5042026;28;19940;-69
2024/01/11 03:09:21;;;;;;;;;;;;;;;-144.99;100.00;52594.84;5050536;28;19929;-69
2024/01/11 03:11:47;;;;;;;;;;;;;;;-144.99;100.00;52588.75;5041657;28;19933;-71
2024/01/11 03:14:14;;;;;;;;;;;;;;;-144.99;100.00;52594.84;5043507;28;20024;-71
2024/01/11 03:16:42;;;;;;;;;;;;;;;-144.99;100.00;52584.66;5036324;28;19940;-71
2024/01/11 03:19:09;;;;;;;;;;;;;;;-144.99;100.00;52603.00;5035919;28;19925;-71
2024/01/11 03:21:35;;;;;;;;;;;;;;;-144.99;100.00;52611.16;5038279;28;19968;-71
2024/01/11 03:24:02;;;;;;;;;;;;;;;-144.99;100.00;52619.31;5031513;28;20322;-71
2024/01/11 03:26:28;;;;;;;;;;;;;;;-144.99;100.00;52619.31;5031500;28;19925;-71
2024/01/11 03:28:55;;;;;;;;;;;;;;;-144.99;100.00;52598.94;5037933;28;19925;-71
2024/01/11 03:31:21;;;;;;;;;;;;;;;-144.99;100.00;52590.78;5053399;28;19925;-70
2024/01/11 03:33:49;;;;;;;;;;;;;;;-144.99;100.00;52603.00;5034726;28;20683;-71
2024/01/11 03:36:16;;;;;;;;;;;;;;;-144.99;100.00;52603.00;5032230;28;19963;-70
2024/01/11 03:38:42;;;;;;;;;;;;;;;-144.99;100.00;52647.84;5032667;28;19933;-73
2024/01/11 03:41:09;;;;;;;;;;;;;;;-144.99;100.00;52621.34;5025994;28;19932;-75
2024/01/11 03:43:36;;;;;;;;;;;;;;;-144.99;100.00;52592.81;5032288;28;20390;-72
2024/01/11 03:46:02;;;;;;;;;;;;;;;-144.99;100.00;52615.25;5032668;28;19925;-72
2024/01/11 03:48:29;;;;;;;;;;;;;;;-144.99;100.00;52615.25;5030206;28;19980;-72
2024/01/11 03:50:57;;;;;;;;;;;;;;;-144.99;100.00;52598.94;5033705;28;19959;-72
2024/01/11 03:53:23;;;;;;;;;;;;;;;-144.99;100.00;52643.78;5031921;28;19929;-72
2024/01/11 03:55:50;;;;;;;;;;;;;;;-144.99;100.00;52643.78;5027169;28;19925;-72
2024/01/11 03:58:16;;;;;;;;;;;;;;;-144.99;100.00;52629.50;5032259;28;20109;-73
2024/01/11 04:00:43;;;;;;;;;;;;;;;-144.99;100.00;52586.69;5026266;28;20384;-64
2024/01/11 04:03:09;;;;;;;;;;;;;;;-144.99;100.00;52627.47;5031150;28;20650;-70
2024/01/11 04:05:36;;;;;;;;;;;;;;;-144.99;100.00;52582.63;5032282;28;19925;-70
2024/01/11 04:08:05;;;;;;;;;;;;;;;-144.99;100.00;52603.00;5025806;28;19965;-70
2024/01/11 04:10:32;;;;;;;;;;;;;;;-144.99;100.00;52627.47;5043452;28;19952;-75
2024/01/11 04:12:58;;;;;;;;;;;;;;;-144.99;100.00;52607.09;5044208;28;19925;-71
2024/01/11 04:15:25;;;;;;;;;;;;;;;-144.99;100.00;52617.28;5016447;28;19948;-70
2024/01/11 04:17:51;;;;;;;;;;;;;;;-144.99;100.00;52592.81;5028156;28;20371;-68
2024/01/11 04:20:18;;;;;;;;;;;;;;;-144.99;100.00;52635.63;5029849;28;19991;-66
2024/01/11 04:22:45;;;;;;;;;;;;;;;-144.99;100.00;52623.38;5032005;28;19925;-70
2024/01/11 04:25:13;;;;;;;;;;;;;;;-144.99;100.00;52623.38;5019849;28;19930;-69
2024/01/11 04:27:39;;;;;;;;;;;;;;;-144.99;100.00;52607.09;5024647;28;20131;-69
2024/01/11 04:30:07;;;;;;;;;;;;;;;-144.99;100.00;52623.38;5030515;28;19991;-68
2024/01/11 04:32:33;;;;;;;;;;;;;;;-144.99;100.00;52558.16;5030564;28;19964;-70
2024/01/11 04:35:00;;;;;;;;;;;;;;;-144.99;100.00;52633.59;5031292;28;19968;-69
2024/01/11 04:37:27;;;;;;;;;;;;;;;-144.99;100.00;52562.25;5031045;28;19979;-71
2024/01/11 04:39:53;;;;;;;;;;;;;;;-144.99;100.00;52594.84;5028432;28;19929;-70
2024/01/11 04:42:21;;;;;;;;;;;;;;;-144.99;100.00;52627.47;5031863;28;19933;-73
2024/01/11 04:47:26;;;;;;;;;;;;;;;-144.99;100.00;52615.25;5042532;28;19979;-75
2024/01/11 04:49:52;;;;;;;;;;;;;;;-144.99;100.00;52607.09;5042922;28;20478;-74
2024/01/11 04:52:18;;;;;;;;;;;;;;;-144.99;100.00;52588.75;5045572;28;19929;-76
2024/01/11 04:54:45;;;;;;;;;;;;;;;-144.99;100.00;52627.47;5038044;28;20015;-76
2024/01/11 04:57:11;;;;;;;;;;;;;;;-144.99;100.00;52607.09;5047998;28;20012;-76
2024/01/11 04:59:39;;;;;;;;;;;;;;;-144.99;100.00;52603.00;5045946;28;20499;-77
2024/01/11 05:02:05;;;;;;;;;;;;;;;-144.99;100.00;52590.78;5047447;28;19982;-76
2024/01/11 05:04:32;;;;;;;;;;;;;;;-144.99;100.00;52590.78;5048737;28;19924;-75
2024/01/11 05:06:58;;;;;;;;;;;;;;;-144.99;100.00;52609.13;5048672;28;20016;-75
2024/01/11 05:09:25;;;;;;;;;;;;;;;-144.99;100.00;52627.47;5046526;28;20019;-76
2024/01/11 05:11:54;;;;;;;;;;;;;;;-144.99;100.00;52594.84;5045714;28;20206;-76
2024/01/11 05:14:20;;;;;;;;;;;;;;;-144.99;100.00;52635.63;5048828;28;20369;-75
2024/01/11 05:16:48;;;;;;;;;;;;;;;-144.99;100.00;52582.63;5047099;28;20015;-76
2024/01/11 05:19:15;;;;;;;;;;;;;;;-144.99;100.00;52596.88;5046639;28;20367;-77
2024/01/11 05:21:41;;;;;;;;;;;;;;;-144.99;100.00;52611.16;5045518;28;20023;-74
2024/01/11 05:24:07;;;;;;;;;;;;;;;-144.99;100.00;52596.88;5043899;28;19932;-75
2024/01/11 05:26:34;;;;;;;;;;;;;;;-144.99;100.00;52603.00;5047701;28;19964;-77
2024/01/11 05:29:00;;;;;;;;;;;;;;;-144.99;100.00;52600.97;5046388;28;20016;-76
2024/01/11 05:31:27;;;;;;;;;;;;;;;-144.99;100.00;52574.47;5046730;28;19932;-76
2024/01/11 05:33:54;;;;;;;;;;;;;;;-144.99;100.00;52635.63;5036904;28;19936;-77
2024/01/11 05:36:21;;;;;;;;;;;;;;;-144.99;100.00;52598.94;5040117;28;19987;-76
2024/01/11 05:38:48;;;;;;;;;;;;;;;-144.99;100.00;52592.81;5040620;28;19992;-75
2024/01/11 05:41:14;;;;;;;;;;;;;;;-144.99;100.00;52613.19;5042576;28;20004;-78
2024/01/11 05:43:41;;;;;;;;;;;;;;;-144.99;100.00;52615.25;5045283;28;19929;-77
2024/01/11 05:46:07;;;;;;;;;;;;;;;-144.99;100.00;52617.28;5040138;28;20180;-76
2024/01/11 05:48:34;;;;;;;;;;;;;;;-144.99;100.00;52623.38;5036784;28;19926;-76
2024/01/11 05:51:02;;;;;;;;;;;;;;;-144.99;100.00;52621.34;5036341;28;20316;-76
2024/01/11 05:53:29;;;;;;;;;;;;;;;-144.99;100.00;52611.16;5029727;28;19926;-75
2024/01/11 05:55:56;;;;;;;;;;;;;;;-144.99;100.00;52578.53;5042137;28;19924;-73
2024/01/11 05:58:22;;;;;;;;;;;;;;;-144.99;100.00;52582.63;5061723;28;19925;-75
2024/01/11 06:00:49;;;;;;;;;;;;;;;-144.99;100.00;52625.44;5052508;28;20011;-76
2024/01/11 06:03:15;;;;;;;;;;;;;;;-144.99;100.00;52631.53;5048327;28;19929;-76
2024/01/11 06:05:42;;;;;;;;;;;;;;;-144.99;100.00;52647.84;5048401;28;20010;-76
2024/01/11 06:08:09;;;;;;;;;;;;;;;-144.99;100.00;52566.31;5047909;28;20032;-76
2024/01/11 06:10:36;;;;;;;;;;;;;;;-144.99;100.00;52635.63;5048341;28;19929;-75
2024/01/11 06:13:02;;;;;;;;;;;;;;;-144.99;100.00;52598.94;5048135;28;20355;-76
2024/01/11 06:15:29;;;;;;;;;;;;;;;-144.99;100.00;52631.53;5047878;28;19947;-76
2024/01/11 06:17:55;;;;;;;;;;;;;;;-144.99;100.00;52621.34;5047901;28;19964;-76
2024/01/11 06:20:22;;;;;;;;;;;;;;;-144.99;100.00;52615.25;5048457;28;20103;-76
2024/01/11 06:22:48;;;;;;;;;;;;;;;-144.99;100.00;52623.38;5048303;28;19929;-74
2024/01/11 06:25:16;;;;;;;;;;;;;;;-144.99;100.00;52560.19;5044644;28;19968;-75
2024/01/11 06:27:43;;;;;;;;;;;;;;;-144.99;100.00;52598.94;5042306;28;20015;-74
2024/01/11 06:30:10;;;;;;;;;;;;;;;-144.99;100.00;52621.34;5037150;28;19924;-76
2024/01/11 06:32:36;;;;;;;;;;;;;;;-144.99;100.00;52641.72;5047883;28;20041;-74
2024/01/11 06:35:03;;;;;;;;;;;;;;;-144.99;100.00;52603.00;5045824;28;19931;-76
2024/01/11 06:37:29;;;;;;;;;;;;;;;-144.99;100.00;52600.97;5050603;28;19925;-76
2024/01/11 06:39:55;;;;;;;;;;;;;;;-144.99;100.00;52603.00;5064527;28;19963;-76
2024/01/11 06:42:23;;;;;;;;;;;;;;;-144.99;100.00;52647.84;5056038;28;20430;-76
2024/01/11 06:44:50;;;;;;;;;;;;;;;-144.99;100.00;52592.81;5054099;28;20494;-74
2024/01/11 06:47:16;;;;;;;;;;;;;;;-144.99;100.00;52607.09;5054401;28;19941;-76
2024/01/11 06:49:42;;;;;;;;;;;;;;;-144.99;100.00;52584.66;5053380;28;20036;-76
2024/01/11 06:52:09;;;;;;;;;;;;;;;-144.99;100.00;52631.53;5051461;28;19964;-76
2024/01/11 06:54:35;;;;;;;;;;;;;;;-144.99;100.00;52611.16;5052219;28;20415;-77
2024/01/11 06:57:02;;;;;;;;;;;;;;;-144.99;100.00;52598.94;5053125;28;19986;-77
2024/01/11 06:59:29;;;;;;;;;;;;;;;-144.99;100.00;52588.75;5052948;28;20011;-75
2024/01/11 07:01:56;;;;;;;;;;;;;;;-144.99;100.00;52574.47;5052440;28;19979;-74
2024/01/11 07:04:22;;;;;;;;;;;;;;;-144.99;100.00;52598.94;5051818;28;20358;-76
2024/01/11 07:06:49;;;;;;;;;;;;;;;-144.99;100.00;52570.38;5052066;28;19967;-75
2024/01/11 07:09:16;;;;;;;;;;;;;;;-144.99;100.00;52603.00;5051665;28;20363;-76
2024/01/11 07:11:43;;;;;;;;;;;;;;;-144.99;100.00;52586.69;5052537;28;19951;-75
2024/01/11 07:14:09;;;;;;;;;;;;;;;-144.99;100.00;52611.16;5048472;28;19951;-76
2024/01/11 07:16:37;;;;;;;;;;;;;;;-144.99;100.00;52615.25;5050870;28;20404;-77
2024/01/11 07:19:04;;;;;;;;;;;;;;;-144.99;100.00;52611.16;5052412;28;20421;-76
2024/01/11 07:21:31;;;;;;;;;;;;;;;-144.99;100.00;52611.16;5059325;28;19924;-77
2024/01/11 07:23:57;;;;;;;;;;;;;;;-144.99;100.00;52613.19;5063111;28;19928;-74
2024/01/11 07:26:24;;;;;;;;;;;;;;;-144.99;100.00;52611.16;5052051;28;19925;-77
2024/01/11 07:28:50;;;;;;;;;;;;;;;-144.99;100.00;52631.53;5048249;28;20035;-75
2024/01/11 07:31:17;;;;;;;;;;;;;;;-144.99;100.00;52611.16;5051757;28;19925;-76
2024/01/11 07:33:45;;;;;;;;;;;;;;;-144.99;100.00;52564.28;5051349;28;20008;-77
2024/01/11 07:36:12;;;;;;;;;;;;;;;-144.99;100.00;52590.78;5043751;28;19929;-74
2024/01/11 07:38:38;;;;;;;;;;;;;;;-144.99;100.00;52641.72;5046787;28;19929;-77
2024/01/11 07:41:05;;;;;;;;;;;;;;;-144.99;100.00;52625.44;5049593;28;19972;-76
2024/01/11 07:43:34;;;;;;;;;;;;;;;-144.99;100.00;52594.84;5050709;28;19963;-76
2024/01/11 07:46:01;;;;;;;;;;;;;;;-144.99;100.00;52611.16;5044549;28;19925;-76
2024/01/11 07:48:27;;;;;;;;;;;;;;;-144.99;100.00;52627.47;5038611;28;20011;-75
2024/01/11 07:50:55;;;;;;;;;;;;;;;-144.99;100.00;52656.00;5050499;28;19963;-74
2024/01/11 07:53:22;;;;;;;;;;;;;;;-144.99;100.00;52592.81;5051049;28;19963;-75
2024/01/11 07:55:48;;;;;;;;;;;;;;;-144.99;100.00;52607.09;5050787;28;19925;-73
2024/01/11 07:58:15;;;;;;;;;;;;;;;-144.99;100.00;52619.31;5050896;28;19960;-76
2024/01/11 08:00:41;;;;;;;;;;;;;;;-144.99;100.00;52590.78;5051008;28;19928;-77
2024/01/11 08:03:08;;;;;;;;;;;;;;;-144.99;100.00;52611.16;5050465;28;19933;-76
2024/01/11 08:05:34;;;;;;;;;;;;;;;-144.99;100.00;52590.78;5049962;28;19940;-75
2024/01/11 08:08:03;;;;;;;;;;;;;;;-144.99;100.00;52611.16;5050470;28;19971;-76
2024/01/11 08:10:31;;;;;;;;;;;;;;;-144.99;100.00;52658.03;5050203;28;20086;-75
2024/01/11 08:12:59;;;;;;;;;;;;;;;-144.99;100.00;52598.94;5050422;28;20312;-74
2024/01/11 08:15:25;;;;;;;;;;;;;;;-144.99;100.00;52582.63;5044214;28;20458;-75
2024/01/11 08:17:52;;;;;;;;;;;;;;;-144.99;100.00;52631.53;5050761;28;20015;-76
2024/01/11 08:20:19;;;;;;;;;;;;;;;-144.99;100.00;52611.16;5050921;28;19964;-75
2024/01/11 08:22:46;;;;;;;;;;;;;;;-144.99;100.00;52598.94;5051179;28;20404;-76
2024/01/11 08:25:14;;;;;;;;;;;;;;;-144.99;100.00;52615.25;5032731;28;20300;-76
2024/01/11 08:27:41;;;;;;;;;;;;;;;-144.99;100.00;52590.78;5047849;28;20168;-74
2024/01/11 08:30:08;;;;;;;;;;;;;;;-144.99;100.00;52623.38;5049854;28;19967;-78
2024/01/11 08:32:38;;;;;;;;;;;;;;;-144.99;100.00;52592.81;5050051;28;19929;-75
2024/01/11 08:35:06;;;;;;;;;;;;;;;-144.99;100.00;52637.66;5050063;28;19969;-75
2024/01/11 08:37:32;;;;;;;;;;;;;;;-144.99;100.00;52570.38;5050353;28;19932;-74
2024/01/11 08:39:59;;;;;;;;;;;;;;;-144.99;100.00;52588.75;5049523;28;20024;-75
2024/01/11 08:42:26;;;;;;;;;;;;;;;-144.99;100.00;52627.47;5031499;28;20320;-75
2024/01/11 08:44:53;;;;;;;;;;;;;;;-144.99;100.00;52603.00;5053602;28;20523;-74
2024/01/11 08:47:19;;;;;;;;;;;;;;;-144.99;100.00;52611.16;5064620;28;20320;-78
2024/01/11 08:49:46;;;;;;;;;;;;;;;-144.99;100.00;52611.16;5056368;28;19955;-77
2024/01/11 08:52:12;;;;;;;;;;;;;;;-144.99;100.00;52627.47;5050097;28;19983;-75
2024/01/11 08:54:38;;;;;;;;;;;;;;;-144.99;100.00;52607.09;5050268;28;20128;-75
2024/01/11 08:57:05;;;;;;;;;;;;;;;-144.99;100.00;52617.28;5049845;28;20027;-77
2024/01/11 08:59:33;;;;;;;;;;;;;;;-144.99;100.00;52603.00;5049141;28;19987;-77
2024/01/11 09:02:00;;;;;;;;;;;;;;;-144.99;100.00;52586.69;5049469;28;19979;-78
2024/01/11 09:04:28;;;;;;;;;;;;;;;-144.99;100.00;52623.38;5050872;28;19951;-75
2024/01/11 09:06:55;;;;;;;;;;;;;;;-144.99;100.00;52633.59;5049413;28;19932;-74
2024/01/11 09:09:22;;;;;;;;;;;;;;;-144.99;100.00;52641.72;5049854;28;20377;-72
2024/01/11 09:11:49;;;;;;;;;;;;;;;-144.99;100.00;52578.53;5049461;28;20007;-74
2024/01/11 09:14:15;;;;;;;;;;;;;;;-144.99;100.00;52629.50;5050022;28;19932;-74
2024/01/11 09:16:44;;;;;;;;;;;;;;;-144.99;100.00;52598.94;5046301;28;20023;-76
2024/01/11 09:19:11;;;;;;;;;;;;;;;-144.99;100.00;52574.47;5047502;28;19928;-75
2024/01/11 09:21:37;;;;;;;;;;;;;;;-144.99;100.00;52609.13;5049643;28;19982;-75
2024/01/11 09:24:04;;;;;;;;;;;;;;;-144.99;100.00;52603.00;5048767;28;19925;-76
2024/01/11 09:26:30;;;;;;;;;;;;;;;-144.99;100.00;52635.63;5050514;28;19925;-76
2024/01/11 09:28:57;;;;;;;;;;;;;;;-144.99;100.00;52625.44;5061270;28;19925;-77
2024/01/11 09:31:24;;;;;;;;;;;;;;;-144.99;100.00;52607.09;5050918;28;20303;-75
2024/01/11 09:33:52;;;;;;;;;;;;;;;-144.99;100.00;52619.31;5050908;28;20015;-77
2024/01/11 09:36:19;;;;;;;;;;;;;;;-144.99;100.00;52590.78;5050613;28;19924;-77
2024/01/11 09:38:45;;;;;;;;;;;;;;;-144.99;100.00;52631.53;5049987;28;19979;-77
2024/01/11 09:41:13;;;;;;;;;;;;;;;-144.99;100.00;52629.50;5049213;28;19992;-76
2024/01/11 09:43:41;;;;;;;;;;;;;;;-144.99;100.00;52639.69;5049243;28;19964;-77
2024/01/11 09:46:08;;;;;;;;;;;;;;;-144.99;100.00;52627.47;5048394;28;20050;-75
2024/01/11 09:48:35;;;;;;;;;;;;;;;-144.99;100.00;52592.81;5049091;28;19928;-76
2024/01/11 09:51:04;;;;;;;;;;;;;;;-144.99;100.00;52615.25;5048544;28;19925;-77
2024/01/11 09:53:32;;;;;;;;;;;;;;;-144.99;100.00;52623.38;5048849;28;19936;-77
2024/01/11 09:55:59;;;;;;;;;;;;;;;-144.99;100.00;52631.53;5048432;28;19924;-76
2024/01/11 09:58:26;;;;;;;;;;;;;;;-144.99;100.00;52615.25;5048145;28;19978;-76
2024/01/11 10:00:54;;;;;;;;;;;;;;;-144.99;100.00;52598.94;5048366;28;20024;-75
2024/01/11 10:03:21;;;;;;;;;;;;;;;-144.99;100.00;52598.94;5048603;28;19979;-77
2024/01/11 10:05:50;;;;;;;;;;;;;;;-144.99;100.00;52574.47;5049622;28;20020;-75
2024/01/11 10:08:18;;;;;;;;;;;;;;;-144.99;100.00;52605.03;5053667;28;19925;-80
2024/01/11 10:10:45;;;;;;;;;;;;;;;-144.99;100.00;52611.16;5054001;28;20100;-77
2024/01/11 10:13:11;;;;;;;;;;;;;;;-144.99;100.00;52623.38;5055188;28;19964;-76
2024/01/11 10:15:38;;;;;;;;;;;;;;;-144.99;100.00;52631.53;5054920;28;20016;-77
2024/01/11 10:18:04;;;;;;;;;;;;;;;-144.99;100.00;52605.03;5055250;28;19929;-76
2024/01/11 10:20:32;;;;;;;;;;;;;;;-144.99;100.00;52639.69;5055558;28;20019;-78
2024/01/11 10:22:59;;;;;;;;;;;;;;;-144.99;100.00;52594.84;5054841;28;20249;-76
2024/01/11 10:25:27;;;;;;;;;;;;;;;-144.99;100.00;52639.69;5052981;28;19980;-76
2024/01/11 10:27:53;;;;;;;;;;;;;;;-144.99;100.00;52623.38;5054682;28;19929;-77
2024/01/11 10:30:22;;;;;;;;;;;;;;;-144.99;100.00;52627.47;5055067;28;19990;-75
2024/01/11 10:32:48;;;;;;;;;;;;;;;-144.99;100.00;52590.78;5046499;28;19995;-75
2024/01/11 10:35:17;;;;;;;;;;;;;;;-144.99;100.00;52582.63;5055539;28;20484;-78
2024/01/11 10:37:44;;;;;;;;;;;;;;;-144.99;100.00;52611.16;5055085;28;19929;-76
2024/01/11 10:40:12;;;;;;;;;;;;;;;-144.99;100.00;52592.81;5047882;28;19928;-74
2024/01/11 10:42:42;;;;;;;;;;;;;;;-144.99;100.00;52603.00;5054460;28;19928;-78
2024/01/11 10:45:11;;;;;;;;;;;;;;;-144.99;100.00;52603.00;5029987;28;19980;-76
2024/01/11 10:47:39;;;;;;;;;;;;;;;-144.99;100.00;52621.34;5058671;28;19979;-76
2024/01/11 10:50:08;;;;;;;;;;;;;;;-144.99;100.00;52615.25;5058126;28;20338;-77
2024/01/11 10:52:37;;;;;;;;;;;;;;;-144.99;100.00;52586.69;5057679;28;19924;-76
2024/01/11 10:55:06;;;;;;;;;;;;;;;-144.99;100.00;52615.25;5058625;28;20031;-77
2024/01/11 10:57:33;;;;;;;;;;;;;;;-144.99;100.00;52578.53;5045960;28;20015;-76
2024/01/11 11:00:03;;;;;;;;;;;;;;;-144.99;100.00;52590.78;5054885;28;19929;-76
2024/01/11 11:02:30;;;;;;;;;;;;;;;-144.99;100.00;52594.84;5057297;28;19925;-79
2024/01/11 11:04:57;;;;;;;;;;;;;;;-144.99;100.00;52645.81;5055260;28;20379;-76
2024/01/11 11:07:23;;;;;;;;;;;;;;;-144.99;100.00;52586.69;5055464;28;19929;-78
2024/01/11 11:09:52;;;;;;;;;;;;;;;-144.99;100.00;52590.78;5054692;28;20425;-76
2024/01/11 11:12:19;;;;;;;;;;;;;;;-144.99;100.00;52611.16;5050269;28;20019;-77
2024/01/11 11:14:47;;;;;;;;;;;;;;;-144.99;100.00;52574.47;5051763;28;19980;-77
2024/01/11 11:17:16;;;;;;;;;;;;;;;-144.99;100.00;52566.31;5052245;28;19936;-78
2024/01/11 11:19:43;;;;;;;;;;;;;;;-144.99;100.00;52590.78;5051080;28;19925;-75
2024/01/11 11:22:09;;;;;;;;;;;;;;;-144.99;100.00;52582.63;5052177;28;19990;-77
2024/01/11 11:24:36;;;;;;;;;;;;;;;-144.99;100.00;52578.53;5051199;28;19928;-77
2024/01/11 11:27:03;;;;;;;;;;;;;;;-144.99;100.00;52582.63;5049253;28;19932;-77
2024/01/11 11:29:29;;;;;;;;;;;;;;;-144.99;100.00;52586.69;5061590;28;20175;-75
2024/01/11 11:31:57;;;;;;;;;;;;;;;-144.99;100.00;52627.47;5059783;28;20467;-77
2024/01/11 11:34:38;;;;;;;;;;;;;;;-144.99;100.00;52562.25;5043830;28;20011;-77
2024/01/11 11:37:06;;;;;;;;;;;;;;;-144.99;100.00;52586.69;5043186;28;19975;-78
2024/01/11 11:39:33;;;;;;;;;;;;;;;-144.99;100.00;52566.31;5044329;28;20066;-77
2024/01/11 11:42:01;;;;;;;;;;;;;;;-144.99;100.00;52586.69;5051343;28;19980;-79
2024/01/11 11:44:27;;;;;;;;;;;;;;;-144.99;100.00;52570.38;5060420;28;19931;-80
2024/01/11 11:46:54;;;;;;;;;;;;;;;-144.99;100.00;52598.94;5060254;28;19971;-78
2024/01/11 11:49:20;;;;;;;;;;;;;;;-144.99;100.00;52613.19;5057751;28;19925;-78
2024/01/11 11:51:47;;;;;;;;;;;;;;;-144.99;100.00;52592.81;5051383;28;19924;-78
2024/01/11 11:54:16;;;;;;;;;;;;;;;-144.99;100.00;52566.31;5051271;28;19939;-78
2024/01/11 11:56:43;;;;;;;;;;;;;;;-144.99;100.00;52562.25;5050982;28;20383;-78
2024/01/11 11:59:09;;;;;;;;;;;;;;;-144.99;100.00;52613.19;5050680;28;19980;-78
2024/01/11 12:01:36;;;;;;;;;;;;;;;-144.99;100.00;52570.38;5051073;28;20467;-78
2024/01/11 12:04:02;;;;;;;;;;;;;;;-144.99;100.00;52594.84;5050980;28;20020;-79
2024/01/11 12:06:29;;;;;;;;;;;;;;;-144.99;100.00;52594.84;5056380;28;19925;-77
2024/01/11 12:08:55;;;;;;;;;;;;;;;-144.99;100.00;52582.63;5063175;28;19931;-79
2024/01/11 12:11:23;;;;;;;;;;;;;;;-144.99;100.00;52566.31;5052727;28;19983;-76
2024/01/11 12:13:52;;;;;;;;;;;;;;;-144.99;100.00;52578.53;5050701;28;20486;-77
2024/01/11 12:16:19;;;;;;;;;;;;;;;-144.99;100.00;52541.84;5043053;28;20105;-79
2024/01/11 12:18:45;;;;;;;;;;;;;;;-144.99;100.00;52603.00;5051530;28;19925;-76